Hesperia, CA (92340)

3:21 PM PST on February 09, 2016 (GMT -0800)
APRSWXNET | | Change Station
CLOSE
Current Station
Personal Weather Station
Location: Hesperia, CA
Elevation: 3051 ft
Nearby Weather Stations

Elev 3051 ft 34.42 °N, 117.27 °W | Updated 37 minutes ago

Clear
Clear
72 °F
Feels Like 75 °F
N
0
Wind Variable Wind from SW
Gusts 0.0 mph

Today
High -- | Low -- °F
--% Chance of Precip.
Yesterday
High -- | Low -- °F
Precip. -- in
Pressure 30.25 in
Visibility 10.0 miles
Clouds Clear
Heat Index 75 °F
Dew Point 27 °F
Humidity 19%
Rainfall in
Snow Depth Not available.
6:40 AM 5:26 PM
New Moon, 3% visible
METAR KVCV 092255Z AUTO 03010KT 10SM CLR 23/M08 A3025 RMK AO2
Pressure 30.25 in
Visibility 10.0 miles
Clouds Clear
Heat Index 75 °F
Dew Point 27 °F
Humidity 19%
Rainfall in
Snow Depth Not available.
6:40 AM 5:26 PM
New Moon, 3% visible
METAR KVCV 092255Z AUTO 03010KT 10SM CLR 23/M08 A3025 RMK AO2

10-Day Weather Forecast

Almanac

Astronomy

Feb. 09, 2016 Rise Set
Actual Time
Civil Twilight
Nautical Twilight
Astronomical Twilight
Moon
Length of Visible Light
Length of Day
Tomorrow will be .
, % of the Moon is Illuminated

Today's Extremes

State Highs State Lows

Community

WunderPhotos

Upload Photos

1,891,744 photos uploaded!

WunderBlog® & News

Nearby

Air Quality

  Air Quality AQ Index Pollutant
Not available.

Snow Depth

Station Depth Elevation

Earthquake Activity

City Distance Mag. Time & Date
Minimum magnitude displayed is 2.5.

Coastal Water Temperatures

Place Temperature

Stations

Nearby Weather Stations

Station Location Temp. Windchill Dew Point Humidity Wind Precip. Elev Updated Type
                   

Watches & Warnings

There are currently no watches in effect.